createdAt,value
2023-04-16T00:01:27.186Z,5.68
2023-04-16T00:03:56.127Z,6.03
2023-04-16T00:06:24.915Z,5.35
2023-04-16T00:08:54.571Z,5.40
2023-04-16T00:11:23.269Z,5.75
2023-04-16T00:13:51.569Z,5.38
2023-04-16T00:16:19.884Z,5.53
2023-04-16T00:18:48.223Z,5.10
2023-04-16T00:21:16.632Z,5.40
2023-04-16T00:23:44.962Z,5.30
2023-04-16T00:26:14.678Z,5.90
2023-04-16T00:28:45.446Z,5.47
2023-04-16T00:31:13.928Z,6.20
2023-04-16T00:33:42.418Z,5.15
2023-04-16T00:36:11.146Z,5.95
2023-04-16T00:38:39.463Z,5.50
2023-04-16T00:41:07.821Z,5.72
2023-04-16T00:43:37.572Z,6.20
2023-04-16T00:46:07.812Z,5.50
2023-04-16T00:48:37.229Z,5.82
2023-04-16T00:51:07.736Z,5.55
2023-04-16T00:53:36.975Z,5.82
2023-04-16T00:56:08.342Z,5.70
2023-04-16T00:58:38.656Z,5.22
2023-04-16T01:01:07.387Z,5.20
2023-04-16T01:03:41.188Z,5.70
2023-04-16T01:06:10.055Z,5.07
2023-04-16T01:08:38.408Z,5.35
2023-04-16T01:11:07.629Z,4.95
2023-04-16T01:13:39.303Z,5.65
2023-04-16T01:16:08.748Z,5.25
2023-04-16T01:18:37.655Z,5.53
2023-04-16T01:21:07.844Z,5.20
2023-04-16T01:23:36.489Z,5.28
2023-04-16T01:26:05.211Z,5.50
2023-04-16T01:28:33.622Z,5.07
2023-04-16T01:31:01.992Z,5.38
2023-04-16T01:33:40.451Z,5.25
2023-04-16T01:36:10.510Z,5.78
2023-04-16T01:38:38.825Z,5.75
2023-04-16T01:41:07.135Z,5.85
2023-04-16T01:43:38.972Z,5.03
2023-04-16T01:46:16.622Z,4.97
2023-04-16T01:48:45.050Z,5.47
2023-04-16T01:51:14.679Z,5.22
2023-04-16T01:53:42.972Z,5.10
2023-04-16T01:56:11.266Z,5.43
2023-04-16T01:58:39.805Z,5.75
2023-04-16T02:01:08.128Z,5.90
2023-04-16T02:03:37.150Z,5.80
2023-04-16T02:06:06.109Z,6.32
2023-04-16T02:08:35.952Z,5.82
2023-04-16T02:11:04.311Z,5.80
2023-04-16T02:13:32.649Z,6.25
2023-04-16T02:16:00.990Z,5.45
2023-04-16T02:18:42.804Z,5.50
2023-04-16T02:21:11.742Z,5.95
2023-04-16T02:23:41.779Z,6.43
2023-04-16T02:26:10.693Z,5.90
2023-04-16T02:28:39.684Z,5.82
2023-04-16T02:31:11.059Z,5.88
2023-04-16T02:33:44.452Z,6.28
2023-04-16T02:36:13.186Z,6.32
2023-04-16T02:38:42.854Z,5.70
2023-04-16T02:41:11.415Z,6.50
2023-04-16T02:43:39.812Z,6.75
2023-04-16T02:46:08.237Z,6.35
2023-04-16T02:48:36.731Z,6.25
2023-04-16T02:51:05.382Z,6.40
2023-04-16T02:53:33.658Z,5.88
2023-04-16T02:56:03.532Z,5.70
2023-04-16T02:58:31.939Z,6.13
2023-04-16T03:01:00.520Z,6.40
2023-04-16T03:03:28.956Z,6.35
2023-04-16T03:05:57.301Z,6.40
2023-04-16T03:08:25.647Z,6.10
2023-04-16T03:10:53.930Z,6.53
2023-04-16T03:13:23.639Z,5.82
2023-04-16T03:15:51.981Z,6.18
2023-04-16T03:18:20.369Z,6.30
2023-04-16T03:20:53.393Z,6.82
2023-04-16T03:23:21.837Z,6.65
2023-04-16T03:25:50.110Z,7.10
2023-04-16T03:28:19.975Z,6.20
2023-04-16T03:30:53.657Z,7.28
2023-04-16T03:33:22.785Z,7.00
2023-04-16T03:35:59.202Z,6.65
2023-04-16T03:38:30.956Z,6.38
2023-04-16T03:41:01.041Z,6.45
2023-04-16T03:43:32.216Z,6.35
2023-04-16T03:46:02.015Z,6.63
2023-04-16T03:48:30.671Z,6.80
2023-04-16T03:50:59.993Z,6.60
2023-04-16T03:53:28.556Z,6.35
2023-04-16T03:55:56.834Z,6.72
2023-04-16T03:58:25.557Z,6.93
2023-04-16T04:00:55.297Z,7.55
2023-04-16T04:03:26.268Z,7.50
2023-04-16T04:05:56.118Z,6.38
2023-04-16T04:08:30.792Z,6.50
2023-04-16T04:10:59.240Z,7.85
2023-04-16T04:13:28.234Z,7.40
2023-04-16T04:15:56.572Z,7.25
2023-04-16T04:18:26.755Z,7.50
2023-04-16T04:20:55.086Z,6.77
2023-04-16T04:23:27.365Z,7.38
2023-04-16T04:25:55.757Z,7.22
2023-04-16T04:28:24.168Z,7.10
2023-04-16T04:30:52.549Z,6.88
2023-04-16T04:33:21.222Z,7.53
2023-04-16T04:35:51.283Z,7.30
2023-04-16T04:38:21.212Z,7.13
2023-04-16T04:40:51.038Z,6.88
2023-04-16T04:43:20.735Z,7.17
2023-04-16T04:45:49.531Z,7.60
2023-04-16T04:48:18.818Z,7.30
2023-04-16T04:50:49.919Z,6.47
2023-04-16T04:53:18.263Z,6.90
2023-04-16T04:55:46.710Z,8.07
2023-04-16T04:58:15.868Z,6.97
2023-04-16T05:00:44.955Z,8.38
2023-04-16T05:03:13.862Z,7.57
2023-04-16T05:05:42.443Z,6.80
2023-04-16T05:08:12.084Z,7.45
2023-04-16T05:10:40.404Z,7.50
2023-04-16T05:13:08.642Z,6.32
2023-04-16T05:15:36.923Z,6.95
2023-04-16T05:18:05.672Z,6.35
2023-04-16T05:20:34.188Z,6.65
2023-04-16T05:23:02.458Z,6.40
2023-04-16T05:25:32.143Z,6.03
2023-04-16T05:28:00.468Z,5.88
2023-04-16T05:30:28.741Z,5.80
2023-04-16T05:32:57.055Z,5.53
2023-04-16T05:35:25.390Z,6.38
2023-04-16T05:37:53.717Z,5.82
2023-04-16T05:40:22.189Z,6.05
2023-04-16T05:42:51.835Z,6.53
2023-04-16T05:45:20.294Z,6.10
2023-04-16T05:47:48.687Z,5.80
2023-04-16T05:50:17.202Z,6.47
2023-04-16T05:52:45.822Z,6.53
2023-04-16T05:55:14.087Z,6.97
2023-04-16T05:57:42.410Z,6.13
2023-04-16T06:00:13.108Z,6.60
2023-04-16T06:05:10.627Z,6.57
2023-04-16T06:07:39.130Z,6.28
2023-04-16T06:10:08.820Z,6.40
2023-04-16T06:12:37.624Z,6.73
2023-04-16T06:15:07.504Z,6.57
2023-04-16T06:17:37.288Z,6.72
2023-04-16T06:20:07.190Z,6.40
2023-04-16T06:22:35.852Z,7.38
2023-04-16T06:25:04.431Z,6.70
2023-04-16T06:27:32.937Z,7.18
2023-04-16T06:30:01.207Z,7.15
2023-04-16T06:32:29.642Z,6.32
2023-04-16T06:34:59.468Z,7.32
2023-04-16T06:37:27.795Z,7.20
2023-04-16T06:39:56.073Z,7.13
2023-04-16T06:42:24.908Z,7.22
2023-04-16T06:44:53.320Z,6.50
2023-04-16T06:47:21.736Z,7.15
2023-04-16T06:49:50.045Z,6.90
2023-04-16T06:52:19.802Z,6.15
2023-04-16T06:54:48.950Z,6.13
2023-04-16T06:57:17.305Z,7.38
2023-04-16T06:59:45.588Z,6.60
2023-04-16T07:02:14.086Z,6.32
2023-04-16T07:04:42.449Z,6.63
2023-04-16T07:07:10.818Z,6.60
2023-04-16T07:09:41.234Z,6.70
2023-04-16T07:12:09.624Z,6.38
2023-04-16T07:14:37.877Z,6.88
2023-04-16T07:17:06.228Z,6.68
2023-04-16T07:19:35.216Z,6.45
2023-04-16T07:22:04.083Z,7.07
2023-04-16T07:24:32.608Z,7.55
2023-04-16T07:27:02.229Z,7.18
2023-04-16T07:29:30.578Z,6.90
2023-04-16T07:31:59.109Z,6.90
2023-04-16T07:34:27.558Z,6.95
2023-04-16T07:36:55.784Z,7.18
2023-04-16T07:39:24.155Z,7.63
2023-04-16T07:41:52.572Z,7.57
2023-04-16T07:44:22.498Z,7.25
2023-04-16T07:46:51.130Z,7.82
2023-04-16T07:49:19.557Z,6.50
2023-04-16T07:51:49.460Z,7.25
2023-04-16T07:54:17.898Z,6.90
2023-04-16T07:56:46.262Z,7.25
2023-04-16T07:59:22.968Z,7.00
2023-04-16T08:01:55.024Z,7.20
2023-04-16T08:04:26.186Z,7.40
2023-04-16T08:06:56.605Z,6.60
2023-04-16T08:09:28.246Z,7.15
2023-04-16T08:11:56.730Z,7.03
2023-04-16T08:14:25.014Z,7.70
2023-04-16T08:16:54.814Z,7.90
2023-04-16T08:19:23.099Z,6.73
2023-04-16T08:21:51.516Z,7.22
2023-04-16T08:24:19.799Z,7.72
2023-04-16T08:26:48.115Z,7.45
2023-04-16T08:29:16.385Z,6.72
2023-04-16T08:31:44.976Z,8.05
2023-04-16T08:34:14.756Z,7.38
2023-04-16T08:36:43.047Z,7.63
2023-04-16T08:39:11.564Z,7.60
2023-04-16T08:41:44.781Z,7.40
2023-04-16T08:44:21.101Z,7.60
2023-04-16T08:46:49.804Z,7.45
2023-04-16T08:49:19.562Z,6.72
2023-04-16T08:51:55.643Z,6.97
2023-04-16T08:54:36.292Z,7.25
2023-04-16T08:57:08.447Z,7.10
2023-04-16T08:59:38.158Z,7.88
2023-04-16T09:02:07.689Z,7.53
2023-04-16T09:04:39.743Z,7.45
2023-04-16T09:07:10.814Z,6.93
2023-04-16T09:09:40.249Z,8.20
2023-04-16T09:12:10.036Z,9.15
2023-04-16T09:14:41.855Z,8.15
2023-04-16T09:17:11.153Z,8.35
2023-04-16T09:19:40.955Z,8.68
2023-04-16T09:22:09.482Z,7.30
2023-04-16T09:24:38.451Z,7.32
2023-04-16T09:27:06.982Z,7.25
2023-04-16T09:29:36.961Z,7.45
2023-04-16T09:32:07.018Z,8.10
2023-04-16T09:34:36.820Z,6.90
2023-04-16T09:37:19.103Z,7.57
2023-04-16T09:39:55.944Z,7.18
2023-04-16T09:42:27.383Z,7.68
2023-04-16T09:44:59.476Z,7.38
2023-04-16T09:47:41.473Z,8.30
2023-04-16T09:50:12.907Z,8.00
2023-04-16T09:52:46.138Z,7.78
2023-04-16T09:55:14.781Z,7.35
2023-04-16T09:57:43.078Z,8.15
2023-04-16T10:00:13.237Z,7.82
2023-04-16T10:02:42.878Z,7.30
2023-04-16T10:05:16.765Z,6.97
2023-04-16T10:07:48.738Z,6.70
2023-04-16T10:10:17.426Z,6.97
2023-04-16T10:12:45.941Z,7.63
2023-04-16T10:15:14.302Z,7.45
2023-04-16T10:17:43.737Z,8.15
2023-04-16T10:20:13.024Z,8.50
2023-04-16T10:22:42.019Z,7.78
2023-04-16T10:25:12.418Z,9.70
2023-04-16T10:27:41.967Z,7.93
2023-04-16T10:30:12.690Z,8.70
2023-04-16T10:35:10.819Z,8.70
2023-04-16T10:37:39.311Z,8.35
2023-04-16T10:40:28.300Z,7.50
2023-04-16T10:42:58.241Z,7.80
2023-04-16T10:45:32.882Z,8.95
2023-04-16T10:48:06.155Z,7.97
2023-04-16T10:50:38.074Z,7.72
2023-04-16T10:53:25.019Z,6.93
2023-04-16T10:56:13.987Z,7.65
2023-04-16T10:58:42.950Z,6.82
2023-04-16T11:01:16.555Z,7.38
2023-04-16T11:03:48.132Z,6.93
2023-04-16T11:06:18.834Z,7.55
2023-04-16T11:08:54.638Z,6.97
2023-04-16T11:11:25.088Z,7.75
2023-04-16T11:13:57.836Z,8.50
2023-04-16T11:16:28.077Z,9.82
2023-04-16T11:18:57.099Z,9.07
2023-04-16T11:21:26.676Z,7.47
2023-04-16T11:23:55.220Z,7.97
2023-04-16T11:26:30.619Z,7.65
2023-04-16T11:29:00.215Z,7.32
2023-04-16T11:31:28.596Z,7.80
2023-04-16T11:34:00.965Z,6.93
2023-04-16T11:36:29.336Z,7.05
2023-04-16T11:39:04.527Z,7.07
2023-04-16T11:41:34.199Z,7.90
2023-04-16T11:44:18.243Z,7.63
2023-04-16T11:46:46.544Z,7.95
2023-04-16T11:49:15.535Z,7.53
2023-04-16T11:51:45.041Z,8.07
2023-04-16T11:54:21.368Z,8.23
2023-04-16T11:56:53.329Z,9.07
2023-04-16T11:59:23.939Z,7.50
2023-04-16T12:01:55.676Z,8.05
2023-04-16T12:04:27.103Z,8.23
2023-04-16T12:07:12.333Z,8.10
2023-04-16T12:09:42.495Z,8.10
2023-04-16T12:12:31.162Z,7.78
2023-04-16T12:15:03.174Z,7.40
2023-04-16T12:17:34.318Z,8.13
2023-04-16T12:20:06.050Z,8.23
2023-04-16T12:22:37.430Z,8.38
2023-04-16T12:25:09.055Z,8.98
2023-04-16T12:27:52.988Z,8.60
2023-04-16T12:30:24.510Z,9.18
2023-04-16T12:33:14.264Z,8.75
2023-04-16T12:35:45.027Z,9.38
2023-04-16T12:40:43.782Z,9.60
2023-04-16T12:43:13.715Z,9.68
2023-04-16T12:45:42.534Z,9.68
2023-04-16T12:48:10.950Z,9.85
2023-04-16T12:50:39.905Z,10.50
2023-04-16T12:53:08.262Z,9.68
2023-04-16T12:55:36.920Z,9.18
2023-04-16T12:58:05.323Z,9.45
2023-04-16T13:00:35.013Z,10.07
2023-04-16T13:03:03.515Z,9.60
2023-04-16T13:05:31.944Z,9.75
2023-04-16T13:08:00.395Z,11.00
2023-04-16T13:10:28.834Z,11.02
2023-04-16T13:12:57.158Z,11.55
2023-04-16T13:15:25.499Z,11.52
2023-04-16T13:17:55.255Z,11.00
2023-04-16T13:20:24.628Z,12.07
2023-04-16T13:22:53.008Z,11.88
2023-04-16T13:25:21.460Z,11.73
2023-04-16T13:27:49.757Z,11.32
2023-04-16T13:30:18.241Z,11.13
2023-04-16T13:32:46.867Z,11.38
2023-04-16T13:35:16.606Z,11.35
2023-04-16T13:37:44.955Z,11.70
2023-04-16T13:40:13.738Z,11.63
2023-04-16T13:42:42.332Z,11.00
2023-04-16T13:45:11.290Z,11.18
2023-04-16T13:47:41.652Z,10.32
2023-04-16T13:50:11.249Z,10.65
2023-04-16T13:52:41.208Z,10.77
2023-04-16T13:55:10.608Z,10.95
2023-04-16T13:57:38.958Z,11.65
2023-04-16T14:00:13.220Z,11.23
2023-04-16T14:02:42.650Z,10.63
2023-04-16T14:05:11.311Z,10.55
2023-04-16T14:07:41.159Z,11.48
2023-04-16T14:10:11.370Z,10.07
2023-04-16T14:12:40.016Z,10.38
2023-04-16T14:15:10.555Z,11.65
2023-04-16T14:17:38.946Z,11.27
2023-04-16T14:20:08.745Z,11.68
2023-04-16T14:22:37.151Z,11.02
2023-04-16T14:25:08.110Z,11.10
2023-04-16T14:27:36.551Z,11.00
2023-04-16T14:30:07.744Z,11.50
2023-04-16T14:32:36.255Z,12.93
2023-04-16T14:35:05.355Z,12.77
2023-04-16T14:37:35.837Z,12.38
2023-04-16T14:40:07.924Z,12.15
2023-04-16T14:42:38.213Z,12.68
2023-04-16T14:45:08.439Z,11.82
2023-04-16T14:47:45.555Z,11.65
2023-04-16T14:50:14.858Z,12.40
2023-04-16T14:52:43.254Z,12.45
2023-04-16T14:55:11.658Z,12.88
2023-04-16T14:57:41.633Z,12.70
2023-04-16T15:00:11.991Z,13.20
2023-04-16T15:02:40.471Z,12.98
2023-04-16T15:05:10.524Z,13.70
2023-04-16T15:07:39.113Z,13.73
2023-04-16T15:10:09.331Z,13.20
2023-04-16T15:12:39.978Z,12.93
2023-04-16T15:17:37.944Z,12.40
2023-04-16T15:20:09.157Z,13.00
2023-04-16T15:22:38.093Z,13.02
2023-04-16T15:25:07.644Z,12.93
2023-04-16T15:27:36.491Z,12.65
2023-04-16T15:30:07.515Z,12.55
2023-04-16T15:32:35.938Z,12.65
2023-04-16T15:35:04.889Z,12.07
2023-04-16T15:37:33.267Z,12.05
2023-04-16T15:40:01.864Z,12.38
2023-04-16T15:42:30.210Z,12.80
2023-04-16T15:44:58.509Z,12.55
2023-04-16T15:47:28.309Z,11.98
2023-04-16T15:49:56.775Z,11.53
2023-04-16T15:52:25.172Z,11.55
2023-04-16T15:54:53.450Z,11.80
2023-04-16T15:57:21.798Z,11.60
2023-04-16T16:00:03.511Z,11.63
2023-04-16T16:02:36.266Z,10.48
2023-04-16T16:05:05.442Z,11.40
2023-04-16T16:07:33.710Z,11.52
2023-04-16T16:10:02.048Z,12.27
2023-04-16T16:12:31.211Z,11.70
2023-04-16T16:14:59.798Z,11.68
2023-04-16T16:17:28.234Z,11.45
2023-04-16T16:19:59.266Z,11.23
2023-04-16T16:22:27.708Z,12.43
2023-04-16T16:24:57.656Z,11.10
2023-04-16T16:27:26.032Z,12.52
2023-04-16T16:29:54.375Z,12.13
2023-04-16T16:32:22.729Z,12.52
2023-04-16T16:34:51.037Z,13.32
2023-04-16T16:37:20.745Z,13.13
2023-04-16T16:39:49.017Z,14.15
2023-04-16T16:42:18.898Z,13.05
2023-04-16T16:44:48.893Z,13.75
2023-04-16T16:47:18.004Z,13.50
2023-04-16T16:49:46.656Z,13.50
2023-04-16T16:52:14.940Z,14.30
2023-04-16T16:54:44.584Z,14.40
2023-04-16T16:57:15.333Z,13.80
2023-04-16T17:02:11.803Z,14.20
2023-04-16T17:04:40.317Z,14.30
2023-04-16T17:07:08.691Z,14.80
2023-04-16T17:09:38.560Z,14.55
2023-04-16T17:12:08.567Z,14.18
2023-04-16T17:14:36.929Z,15.27
2023-04-16T17:17:05.404Z,15.85
2023-04-16T17:19:33.712Z,15.02
2023-04-16T17:22:01.994Z,15.60
2023-04-16T17:24:30.387Z,14.70
2023-04-16T17:26:58.961Z,14.98
2023-04-16T17:29:28.758Z,15.02
2023-04-16T17:31:57.129Z,15.53
2023-04-16T17:34:25.530Z,15.70
2023-04-16T17:36:53.960Z,15.13
2023-04-16T17:39:22.310Z,14.10
2023-04-16T17:41:54.230Z,15.18
2023-04-16T17:44:25.554Z,16.40
2023-04-16T17:46:55.283Z,15.98
2023-04-16T17:49:23.760Z,15.80
2023-04-16T17:51:52.180Z,16.85
2023-04-16T17:54:20.598Z,16.20
2023-04-16T17:56:48.935Z,16.80
2023-04-16T17:59:17.232Z,17.73
2023-04-16T18:01:45.740Z,17.20
2023-04-16T18:04:15.994Z,16.42
2023-04-16T18:06:44.702Z,16.98
2023-04-16T18:09:14.397Z,18.08
2023-04-16T18:11:42.766Z,17.57
2023-04-16T18:14:13.488Z,18.25
2023-04-16T18:16:41.972Z,17.73
2023-04-16T18:19:10.280Z,17.48
2023-04-16T18:21:40.034Z,18.80
2023-04-16T18:24:10.038Z,18.43
2023-04-16T18:26:41.078Z,18.83
2023-04-16T18:29:09.789Z,19.52
2023-04-16T18:31:38.676Z,18.13
2023-04-16T18:34:07.201Z,19.27
2023-04-16T18:36:35.655Z,20.50
2023-04-16T18:39:05.925Z,19.90
2023-04-16T18:41:34.375Z,19.50
2023-04-16T18:44:02.785Z,19.88
2023-04-16T18:46:31.152Z,20.45
2023-04-16T18:48:59.984Z,21.77
2023-04-16T18:51:28.589Z,19.75
2023-04-16T18:53:57.063Z,21.67
2023-04-16T18:56:26.864Z,21.23
2023-04-16T18:58:55.263Z,22.20
2023-04-16T19:01:24.569Z,22.80
2023-04-16T19:03:53.139Z,22.30
2023-04-16T19:06:21.461Z,21.30
2023-04-16T19:08:49.691Z,21.88
2023-04-16T19:11:18.063Z,21.27
2023-04-16T19:13:47.792Z,21.85
2023-04-16T19:16:16.960Z,21.33
2023-04-16T19:18:45.585Z,20.25
2023-04-16T19:21:13.942Z,21.17
2023-04-16T19:23:42.656Z,22.02
2023-04-16T19:26:10.994Z,20.45
2023-04-16T19:28:39.674Z,21.80
2023-04-16T19:31:09.936Z,21.58
2023-04-16T19:33:38.472Z,20.67
2023-04-16T19:36:07.420Z,21.52
2023-04-16T19:38:35.790Z,21.85
2023-04-16T19:41:04.151Z,21.98
2023-04-16T19:43:32.479Z,21.10
2023-04-16T19:46:00.872Z,19.75
2023-04-16T19:48:31.786Z,22.92
2023-04-16T19:51:04.274Z,21.20
2023-04-16T19:53:34.091Z,21.58
2023-04-16T19:56:02.472Z,22.20
2023-04-16T19:58:30.786Z,24.13
2023-04-16T20:00:59.220Z,22.23
2023-04-16T20:03:27.675Z,23.40
2023-04-16T20:05:57.409Z,22.73
2023-04-16T20:08:25.958Z,23.27
2023-04-16T20:10:54.980Z,23.17
2023-04-16T20:13:23.400Z,22.15
2023-04-16T20:15:53.898Z,22.77
2023-04-16T20:18:22.358Z,22.60
2023-04-16T20:20:50.769Z,22.00
2023-04-16T20:23:20.527Z,21.27
2023-04-16T20:25:49.124Z,22.80
2023-04-16T20:28:21.339Z,23.17
2023-04-16T20:30:50.907Z,23.40
2023-04-16T20:33:19.478Z,24.48
2023-04-16T20:35:50.841Z,23.10
2023-04-16T20:38:23.939Z,23.25
2023-04-16T20:40:58.083Z,23.27
2023-04-16T20:43:29.538Z,24.20
2023-04-16T20:45:58.021Z,24.05
2023-04-16T20:48:26.481Z,23.58
2023-04-16T20:51:00.074Z,24.10
2023-04-16T20:53:30.246Z,25.08
2023-04-16T20:55:59.970Z,25.98
2023-04-16T20:58:28.351Z,24.15
2023-04-16T21:00:58.697Z,24.10
2023-04-16T21:03:27.138Z,23.52
2023-04-16T21:05:56.801Z,23.27
2023-04-16T21:08:25.784Z,23.40
2023-04-16T21:10:55.548Z,24.77
2023-04-16T21:13:23.918Z,24.97
2023-04-16T21:15:52.694Z,24.60
2023-04-16T21:18:21.146Z,24.92
2023-04-16T21:20:49.495Z,24.65
2023-04-16T21:23:17.915Z,24.98
2023-04-16T21:25:46.240Z,25.30
2023-04-16T21:28:15.988Z,27.50
2023-04-16T21:30:44.399Z,27.83
2023-04-16T21:33:13.007Z,25.52
2023-04-16T21:35:41.423Z,26.88
2023-04-16T21:38:09.691Z,24.77
2023-04-16T21:40:38.124Z,25.98
2023-04-16T21:43:06.490Z,26.38
2023-04-16T21:45:36.277Z,26.02
2023-04-16T21:48:04.849Z,27.27
2023-04-16T21:50:33.305Z,26.63
2023-04-16T21:53:04.462Z,28.05
2023-04-16T21:55:33.005Z,27.02
2023-04-16T21:58:01.370Z,27.40
2023-04-16T22:00:30.046Z,26.75
2023-04-16T22:03:00.038Z,27.27
2023-04-16T22:05:29.014Z,27.65
2023-04-16T22:07:57.333Z,28.23
2023-04-16T22:10:25.747Z,28.75
2023-04-16T22:12:54.890Z,26.63
2023-04-16T22:15:23.309Z,27.42
2023-04-16T22:17:51.764Z,28.88
2023-04-16T22:20:22.268Z,27.48
2023-04-16T22:22:52.740Z,26.25
2023-04-16T22:25:21.105Z,29.58
2023-04-16T22:27:49.452Z,30.42
2023-04-16T22:30:17.877Z,28.77
2023-04-16T22:32:46.392Z,29.48
2023-04-16T22:35:15.499Z,33.65
2023-04-16T22:37:45.528Z,32.28
2023-04-16T22:40:14.955Z,32.35
2023-04-16T22:42:43.413Z,34.25
2023-04-16T22:45:12.908Z,34.85
2023-04-16T22:47:41.649Z,36.67
2023-04-16T22:50:10.997Z,36.50
2023-04-16T22:52:39.324Z,33.70
2023-04-16T22:55:10.322Z,35.15
2023-04-16T22:57:38.758Z,35.55
2023-04-16T23:00:11.306Z,38.08
2023-04-16T23:02:39.752Z,40.03
2023-04-16T23:05:09.154Z,41.38
2023-04-16T23:07:37.496Z,41.53
2023-04-16T23:10:08.934Z,40.17
2023-04-16T23:12:38.102Z,43.10
2023-04-16T23:15:07.870Z,42.75
2023-04-16T23:17:36.323Z,43.72
2023-04-16T23:20:07.646Z,43.63
2023-04-16T23:22:36.011Z,44.33
2023-04-16T23:25:04.427Z,47.13
2023-04-16T23:27:34.183Z,44.60
2023-04-16T23:30:02.625Z,42.90
2023-04-16T23:32:31.036Z,44.53
2023-04-16T23:34:59.452Z,43.83
2023-04-16T23:37:27.950Z,46.88
2023-04-16T23:39:56.568Z,46.67
2023-04-16T23:42:24.922Z,44.80
2023-04-16T23:44:54.593Z,44.45
2023-04-16T23:47:23.546Z,44.08
2023-04-16T23:49:51.855Z,45.70
2023-04-16T23:52:20.629Z,44.30
2023-04-16T23:54:49.214Z,44.45
2023-04-16T23:57:17.486Z,42.40
2023-04-16T23:59:45.869Z,43.67
